createdAt,value
2019-05-19T00:01:35.091Z,100.02
2019-05-19T00:04:05.312Z,101.18
2019-05-19T00:06:35.519Z,98.33
2019-05-19T00:09:05.991Z,102.43
2019-05-19T00:11:36.251Z,102.40
2019-05-19T00:14:06.486Z,105.95
2019-05-19T00:16:36.675Z,107.03
2019-05-19T00:19:06.975Z,110.63
2019-05-19T00:21:37.199Z,117.05
2019-05-19T00:24:07.416Z,117.67
2019-05-19T00:26:37.750Z,112.72
2019-05-19T00:29:07.986Z,122.30
2019-05-19T00:31:38.327Z,116.10
2019-05-19T00:34:08.619Z,114.52
2019-05-19T00:36:38.823Z,120.77
2019-05-19T00:39:09.052Z,128.10
2019-05-19T00:41:39.273Z,128.23
2019-05-19T00:44:09.511Z,135.88
2019-05-19T00:46:40.891Z,125.12
2019-05-19T00:49:11.175Z,124.47
2019-05-19T00:51:41.451Z,134.37
2019-05-19T00:54:11.694Z,135.88
2019-05-19T00:56:41.917Z,138.62
2019-05-19T00:59:12.228Z,133.63
2019-05-19T01:01:42.422Z,135.93
2019-05-19T01:04:12.721Z,135.45
2019-05-19T01:06:43.275Z,144.93
2019-05-19T01:09:13.500Z,137.00
2019-05-19T01:11:43.976Z,137.20
2019-05-19T01:14:15.404Z,135.82
2019-05-19T01:16:45.763Z,133.27
2019-05-19T01:19:15.991Z,135.95
2019-05-19T01:21:46.207Z,137.20
2019-05-19T01:24:16.452Z,138.77
2019-05-19T01:26:46.654Z,130.12
2019-05-19T01:29:16.883Z,141.62
2019-05-19T01:31:47.079Z,135.48
2019-05-19T01:34:17.382Z,141.47
2019-05-19T01:37:02.915Z,136.05
2019-05-19T01:39:33.234Z,149.62
2019-05-19T01:42:03.531Z,139.25
2019-05-19T01:44:33.811Z,142.32
2019-05-19T01:47:04.024Z,144.60
2019-05-19T01:49:34.268Z,139.97
2019-05-19T01:52:04.547Z,143.28
2019-05-19T01:54:34.791Z,137.15
2019-05-19T01:57:04.989Z,137.47
2019-05-19T01:59:35.233Z,132.57
2019-05-19T02:02:05.478Z,131.10
2019-05-19T02:04:35.791Z,131.60
2019-05-19T02:07:06.364Z,134.25
2019-05-19T02:09:36.606Z,126.65
2019-05-19T02:12:06.818Z,134.70
2019-05-19T02:14:37.042Z,137.85
2019-05-19T02:17:07.244Z,131.03
2019-05-19T02:19:37.479Z,134.25
2019-05-19T02:22:21.036Z,138.57
2019-05-19T02:24:51.270Z,139.60
2019-05-19T02:27:21.597Z,137.80
2019-05-19T02:29:51.873Z,131.85
2019-05-19T02:34:52.579Z,138.97
2019-05-19T02:37:22.886Z,158.32
2019-05-19T02:39:53.155Z,152.72
2019-05-19T02:42:23.384Z,161.97
2019-05-19T02:44:53.593Z,153.72
2019-05-19T02:47:23.816Z,167.03
2019-05-19T02:49:54.029Z,166.95
2019-05-19T02:52:31.136Z,162.93
2019-05-19T02:55:01.428Z,165.75
2019-05-19T02:57:32.293Z,152.27
2019-05-19T03:00:03.236Z,162.35
2019-05-19T03:02:34.110Z,163.00
2019-05-19T03:05:05.151Z,154.03
2019-05-19T03:07:35.853Z,154.85
2019-05-19T03:10:06.501Z,152.72
2019-05-19T03:12:37.803Z,161.40
2019-05-19T03:15:08.068Z,161.70
2019-05-19T03:17:38.360Z,164.28
2019-05-19T03:20:08.578Z,178.78
2019-05-19T03:22:38.865Z,164.25
2019-05-19T03:25:09.084Z,170.30
2019-05-19T03:27:40.382Z,167.60
2019-05-19T03:30:29.841Z,164.15
2019-05-19T03:33:01.748Z,159.82
2019-05-19T03:35:32.005Z,159.27
2019-05-19T03:38:02.653Z,163.77
2019-05-19T03:40:32.893Z,180.78
2019-05-19T03:43:03.221Z,171.68
2019-05-19T03:45:33.503Z,157.20
2019-05-19T03:48:03.737Z,162.62
2019-05-19T03:50:34.131Z,161.18
2019-05-19T03:53:04.430Z,153.05
2019-05-19T03:55:34.665Z,150.78
2019-05-19T03:58:04.868Z,150.90
2019-05-19T04:00:35.106Z,156.05
2019-05-19T04:03:05.327Z,150.20
2019-05-19T04:05:35.690Z,156.70
2019-05-19T04:08:25.430Z,144.60
2019-05-19T04:10:55.734Z,168.22
2019-05-19T04:13:26.054Z,168.13
2019-05-19T04:15:56.338Z,151.32
2019-05-19T04:18:26.604Z,146.07
2019-05-19T04:20:56.862Z,144.57
2019-05-19T04:23:27.152Z,133.70
2019-05-19T04:25:57.469Z,137.25
2019-05-19T04:28:28.019Z,137.27
2019-05-19T04:30:58.295Z,131.87
2019-05-19T04:33:28.518Z,125.53
2019-05-19T04:35:58.815Z,124.47
2019-05-19T04:38:29.069Z,132.30
2019-05-19T04:40:59.309Z,127.97
2019-05-19T04:43:29.513Z,118.00
2019-05-19T04:45:59.748Z,126.38
2019-05-19T04:48:29.969Z,122.65
2019-05-19T04:51:00.292Z,116.82
2019-05-19T04:56:01.090Z,110.55
2019-05-19T04:58:31.364Z,109.48
2019-05-19T05:01:01.594Z,102.75
2019-05-19T05:03:31.813Z,103.87
2019-05-19T05:06:02.113Z,111.80
2019-05-19T05:08:32.320Z,107.80
2019-05-19T05:11:02.551Z,98.10
2019-05-19T05:13:32.790Z,91.02
2019-05-19T05:16:03.123Z,97.15
2019-05-19T05:18:33.352Z,106.87
2019-05-19T05:21:03.581Z,98.47
2019-05-19T05:23:33.940Z,94.00
2019-05-19T05:26:04.147Z,95.38
2019-05-19T05:28:34.391Z,88.52
2019-05-19T05:31:04.691Z,88.22
2019-05-19T05:33:35.006Z,89.62
2019-05-19T05:36:05.477Z,90.83
2019-05-19T05:38:35.727Z,87.27
2019-05-19T05:41:06.038Z,79.45
2019-05-19T05:43:36.397Z,86.15
2019-05-19T05:46:06.668Z,76.93
2019-05-19T05:48:36.976Z,82.55
2019-05-19T05:51:07.159Z,79.32
2019-05-19T05:53:37.536Z,81.15
2019-05-19T05:56:07.871Z,81.77
2019-05-19T05:58:38.092Z,79.12
2019-05-19T06:01:08.298Z,79.45
2019-05-19T06:03:38.552Z,80.30
2019-05-19T06:06:08.749Z,72.00
2019-05-19T06:08:39.023Z,76.12
2019-05-19T06:11:09.242Z,77.58
2019-05-19T06:13:39.478Z,77.25
2019-05-19T06:16:09.697Z,73.50
2019-05-19T06:18:39.916Z,73.05
2019-05-19T06:21:12.636Z,70.50
2019-05-19T06:24:15.565Z,69.70
2019-05-19T06:26:45.769Z,72.22
2019-05-19T06:29:16.256Z,73.63
2019-05-19T06:31:46.680Z,75.57
2019-05-19T06:34:16.974Z,71.53
2019-05-19T06:36:47.175Z,75.55
2019-05-19T06:39:17.435Z,75.75
2019-05-19T06:41:47.633Z,76.07
2019-05-19T06:44:17.851Z,74.17
2019-05-19T06:46:48.047Z,78.78
2019-05-19T06:49:18.265Z,75.17
2019-05-19T06:51:48.459Z,73.30
2019-05-19T06:54:18.779Z,73.35
2019-05-19T06:56:49.011Z,72.60
2019-05-19T06:59:19.253Z,72.95
2019-05-19T07:01:49.444Z,72.00
2019-05-19T07:04:19.661Z,67.60
2019-05-19T07:06:49.932Z,66.62
2019-05-19T07:09:20.420Z,72.93
2019-05-19T07:11:50.626Z,69.03
2019-05-19T07:14:20.920Z,63.30
2019-05-19T07:16:51.247Z,62.58
2019-05-19T07:19:21.535Z,61.75
2019-05-19T07:21:51.760Z,64.80
2019-05-19T07:24:21.976Z,61.18
2019-05-19T07:26:53.149Z,60.20
2019-05-19T07:29:23.513Z,56.83
2019-05-19T07:31:53.709Z,57.73
2019-05-19T07:34:23.919Z,53.58
2019-05-19T07:36:54.192Z,54.00
2019-05-19T07:39:42.456Z,57.07
2019-05-19T07:42:12.655Z,52.60
2019-05-19T07:44:45.307Z,51.07
2019-05-19T07:47:14.801Z,53.35
2019-05-19T07:49:45.093Z,53.37
2019-05-19T07:52:15.307Z,52.33
2019-05-19T07:54:45.919Z,53.40
2019-05-19T07:57:16.128Z,46.28
2019-05-19T07:59:46.332Z,49.07
2019-05-19T08:02:16.548Z,50.33
2019-05-19T08:04:46.820Z,48.83
2019-05-19T08:07:17.046Z,55.78
2019-05-19T08:15:58.387Z,46.95
2019-05-19T08:18:28.616Z,47.63
2019-05-19T08:20:58.934Z,46.48
2019-05-19T08:23:29.180Z,44.08
2019-05-19T08:25:59.395Z,50.93
2019-05-19T08:28:29.605Z,47.10
2019-05-19T08:30:59.825Z,47.80
2019-05-19T08:33:30.216Z,50.33
2019-05-19T08:36:00.480Z,45.12
2019-05-19T08:38:30.761Z,48.47
2019-05-19T08:41:01.054Z,50.52
2019-05-19T08:43:32.599Z,50.25
2019-05-19T08:46:02.835Z,48.27
2019-05-19T08:48:33.070Z,46.10
2019-05-19T08:51:03.355Z,45.35
2019-05-19T08:53:33.639Z,47.03
2019-05-19T08:56:03.883Z,46.87
2019-05-19T08:58:34.096Z,49.57
2019-05-19T09:01:04.383Z,45.70
2019-05-19T09:03:34.702Z,46.20
2019-05-19T09:06:04.924Z,49.95
2019-05-19T09:08:35.144Z,46.77
2019-05-19T09:11:05.344Z,46.00
2019-05-19T09:13:35.660Z,49.13
2019-05-19T09:16:05.854Z,47.47
2019-05-19T09:18:36.089Z,45.95
2019-05-19T09:21:06.350Z,47.23
2019-05-19T09:23:36.841Z,45.88
2019-05-19T09:26:07.049Z,44.48
2019-05-19T09:28:37.368Z,44.50
2019-05-19T09:31:08.000Z,48.23
2019-05-19T09:33:38.291Z,45.33
2019-05-19T09:36:08.671Z,42.00
2019-05-19T09:38:40.921Z,42.33
2019-05-19T09:41:10.868Z,43.10
2019-05-19T09:43:41.155Z,45.33
2019-05-19T09:46:13.874Z,40.53
2019-05-19T09:48:43.320Z,39.15
2019-05-19T09:51:13.519Z,40.97
2019-05-19T09:53:43.738Z,40.88
2019-05-19T09:56:13.928Z,44.57
2019-05-19T09:58:44.160Z,43.28
2019-05-19T10:01:14.376Z,42.47
2019-05-19T10:03:44.592Z,44.13
2019-05-19T10:06:14.884Z,39.93
2019-05-19T10:08:50.190Z,43.57
2019-05-19T10:11:43.548Z,40.63
2019-05-19T10:14:13.747Z,43.85
2019-05-19T10:16:43.954Z,39.42
2019-05-19T10:19:14.158Z,39.83
2019-05-19T10:21:44.371Z,40.38
2019-05-19T10:24:14.587Z,39.97
2019-05-19T10:27:03.428Z,39.87
2019-05-19T10:29:33.621Z,43.65
2019-05-19T10:32:03.907Z,42.48
2019-05-19T10:34:34.101Z,38.20
2019-05-19T10:37:04.383Z,37.95
2019-05-19T10:39:34.752Z,38.67
2019-05-19T10:42:05.047Z,39.60
2019-05-19T10:44:35.281Z,36.83
2019-05-19T10:47:05.506Z,36.60
2019-05-19T10:49:35.708Z,38.77
2019-05-19T10:52:05.988Z,37.00
2019-05-19T10:54:36.187Z,34.50
2019-05-19T10:57:06.403Z,37.13
2019-05-19T10:59:36.611Z,37.07
2019-05-19T11:02:06.823Z,38.43
2019-05-19T11:04:37.023Z,42.87
2019-05-19T11:07:07.248Z,46.53
2019-05-19T11:09:37.452Z,39.53
2019-05-19T11:12:07.695Z,37.27
2019-05-19T11:14:37.996Z,38.33
2019-05-19T11:17:09.815Z,33.92
2019-05-19T11:19:41.074Z,32.98
2019-05-19T11:22:11.363Z,29.32
2019-05-19T11:24:41.561Z,34.63
2019-05-19T11:27:11.788Z,34.07
2019-05-19T11:29:41.982Z,29.20
2019-05-19T11:32:12.200Z,33.95
2019-05-19T11:34:42.485Z,32.40
2019-05-19T11:37:12.723Z,34.77
2019-05-19T11:39:42.935Z,38.37
2019-05-19T11:42:13.552Z,37.53
2019-05-19T11:44:43.771Z,34.88
2019-05-19T11:47:13.992Z,35.27
2019-05-19T11:49:44.264Z,35.63
2019-05-19T11:52:14.556Z,35.10
2019-05-19T11:54:44.771Z,32.97
2019-05-19T11:57:14.993Z,36.77
2019-05-19T11:59:45.189Z,36.83
2019-05-19T12:02:15.401Z,32.53
2019-05-19T12:04:45.600Z,36.43
2019-05-19T12:07:15.929Z,38.60
2019-05-19T12:09:47.168Z,30.90
2019-05-19T12:12:17.407Z,31.80
2019-05-19T12:14:47.679Z,36.40
2019-05-19T12:17:17.896Z,33.37
2019-05-19T12:19:48.100Z,35.43
2019-05-19T12:22:18.312Z,36.10
2019-05-19T12:24:48.504Z,38.80
2019-05-19T12:27:36.011Z,39.10
2019-05-19T12:30:26.040Z,39.03
2019-05-19T12:32:59.231Z,36.08
2019-05-19T12:35:28.253Z,39.95
2019-05-19T12:37:58.452Z,35.33
2019-05-19T12:40:28.757Z,33.70
2019-05-19T12:46:46.315Z,40.20
2019-05-19T12:49:16.536Z,33.33
2019-05-19T12:51:46.733Z,33.02
2019-05-19T12:54:16.954Z,36.75
2019-05-19T12:56:47.219Z,38.73
2019-05-19T12:59:17.446Z,30.00
2019-05-19T13:01:47.658Z,27.48
2019-05-19T13:04:17.953Z,30.10
2019-05-19T13:06:48.298Z,36.85
2019-05-19T13:09:18.553Z,38.15
2019-05-19T13:12:25.456Z,32.90
2019-05-19T13:14:55.683Z,31.75
2019-05-19T13:17:25.879Z,31.00
2019-05-19T13:19:56.149Z,34.80
2019-05-19T13:22:26.399Z,29.87
2019-05-19T13:24:56.683Z,36.55
2019-05-19T13:27:26.882Z,38.78
2019-05-19T13:29:57.176Z,29.63
2019-05-19T13:32:27.377Z,26.53
2019-05-19T13:34:57.595Z,27.63
2019-05-19T13:37:27.831Z,27.42
2019-05-19T13:39:58.059Z,28.47
2019-05-19T13:42:46.822Z,35.48
2019-05-19T13:45:17.058Z,30.70
2019-05-19T13:47:47.247Z,36.07
2019-05-19T13:50:17.721Z,34.10
2019-05-19T13:52:51.118Z,36.20
2019-05-19T13:55:19.883Z,33.10
2019-05-19T13:57:50.098Z,40.55
2019-05-19T14:00:20.786Z,42.10
2019-05-19T14:02:51.149Z,42.03
2019-05-19T14:05:21.427Z,45.88
2019-05-19T14:07:51.644Z,43.92
2019-05-19T14:10:21.900Z,42.45
2019-05-19T14:12:52.566Z,49.23
2019-05-19T14:15:22.873Z,44.53
2019-05-19T14:17:53.165Z,44.37
2019-05-19T14:20:23.359Z,47.20
2019-05-19T14:22:53.583Z,42.33
2019-05-19T14:25:23.784Z,46.10
2019-05-19T14:27:54.007Z,48.55
2019-05-19T14:30:24.218Z,47.05
2019-05-19T14:32:57.486Z,48.23
2019-05-19T14:35:26.357Z,51.65
2019-05-19T14:37:56.575Z,44.08
2019-05-19T14:40:26.805Z,38.45
2019-05-19T14:43:19.086Z,39.13
2019-05-19T14:45:49.429Z,41.15
2019-05-19T14:48:19.706Z,45.77
2019-05-19T14:50:49.961Z,44.85
2019-05-19T14:53:20.185Z,43.15
2019-05-19T14:55:50.451Z,40.43
2019-05-19T14:58:20.681Z,62.85
2019-05-19T15:00:50.904Z,40.52
2019-05-19T15:03:21.220Z,39.18
2019-05-19T15:05:51.431Z,42.03
2019-05-19T15:08:21.808Z,49.30
2019-05-19T15:10:52.056Z,52.45
2019-05-19T15:13:59.794Z,51.70
2019-05-19T15:16:30.045Z,51.30
2019-05-19T15:19:00.688Z,51.92
2019-05-19T15:21:31.983Z,50.98
2019-05-19T15:24:02.279Z,53.17
2019-05-19T15:26:32.486Z,53.48
2019-05-19T15:29:20.960Z,52.23
2019-05-19T15:31:51.186Z,56.02
2019-05-19T15:34:21.389Z,55.38
2019-05-19T15:36:51.672Z,55.17
2019-05-19T15:39:21.866Z,52.98
2019-05-19T15:41:52.155Z,51.88
2019-05-19T15:44:22.622Z,58.45
2019-05-19T15:46:52.916Z,57.27
2019-05-19T15:49:23.196Z,54.18
2019-05-19T15:52:02.363Z,58.78
2019-05-19T15:54:25.316Z,59.10
2019-05-19T15:56:55.539Z,52.38
2019-05-19T15:59:25.802Z,53.20
2019-05-19T16:01:56.148Z,53.17
2019-05-19T16:04:26.415Z,53.65
2019-05-19T16:06:56.623Z,53.75
2019-05-19T16:09:26.887Z,52.30
2019-05-19T16:11:57.187Z,54.95
2019-05-19T16:14:27.426Z,51.90
2019-05-19T16:16:57.628Z,52.45
2019-05-19T16:19:27.839Z,55.67
2019-05-19T16:21:58.116Z,56.20
2019-05-19T16:24:28.303Z,57.30
2019-05-19T16:26:58.515Z,51.25
2019-05-19T16:30:05.840Z,54.75
2019-05-19T16:32:36.150Z,54.88
2019-05-19T16:35:06.909Z,58.05
2019-05-19T16:37:37.356Z,57.55
2019-05-19T16:40:07.543Z,59.65
2019-05-19T16:42:37.935Z,55.07
2019-05-19T16:45:09.838Z,55.25
2019-05-19T16:47:40.122Z,54.03
2019-05-19T16:50:10.785Z,55.73
2019-05-19T16:52:41.077Z,57.80
2019-05-19T16:55:28.148Z,59.55
2019-05-19T16:57:58.444Z,62.65
2019-05-19T17:00:29.689Z,59.97
2019-05-19T17:03:00.045Z,56.53
2019-05-19T17:05:30.319Z,58.35
2019-05-19T17:08:00.623Z,61.10
2019-05-19T17:10:31.178Z,60.30
2019-05-19T17:13:01.381Z,55.60
2019-05-19T17:15:31.679Z,61.50
2019-05-19T17:18:01.897Z,59.48
2019-05-19T17:20:32.151Z,60.75
2019-05-19T17:23:02.383Z,60.20
2019-05-19T17:25:32.610Z,60.35
2019-05-19T17:28:02.830Z,59.60
2019-05-19T17:30:33.195Z,77.05
2019-05-19T17:33:03.528Z,71.13
2019-05-19T17:35:33.848Z,63.25
2019-05-19T17:38:04.065Z,72.70
2019-05-19T17:40:34.293Z,73.83
2019-05-19T17:43:04.567Z,66.80
2019-05-19T17:45:35.094Z,64.25
2019-05-19T17:48:09.878Z,64.82
2019-05-19T17:50:37.375Z,55.45
2019-05-19T17:53:07.651Z,59.05
2019-05-19T17:55:38.008Z,52.93
2019-05-19T17:58:08.243Z,51.90
2019-05-19T18:00:41.304Z,51.73
2019-05-19T18:03:11.507Z,49.53
2019-05-19T18:05:41.737Z,47.35
2019-05-19T18:08:11.939Z,48.42
2019-05-19T18:10:42.161Z,47.48
2019-05-19T18:13:12.347Z,44.70
2019-05-19T18:15:42.569Z,47.33
2019-05-19T18:18:12.777Z,41.50
2019-05-19T18:20:42.991Z,46.33
2019-05-19T18:23:13.255Z,47.98
2019-05-19T18:25:43.548Z,44.98
2019-05-19T18:28:13.756Z,44.98
2019-05-19T18:30:43.972Z,44.70
2019-05-19T18:33:14.230Z,44.77
2019-05-19T18:35:44.540Z,44.53
2019-05-19T18:38:14.849Z,44.33
2019-05-19T18:40:45.169Z,48.78
2019-05-19T18:43:15.384Z,49.73
2019-05-19T18:45:45.618Z,46.10
2019-05-19T18:48:15.808Z,54.00
2019-05-19T18:50:46.062Z,48.23
2019-05-19T18:53:16.247Z,52.80
2019-05-19T18:55:46.545Z,49.23
2019-05-19T18:58:16.731Z,50.75
2019-05-19T19:00:46.971Z,48.98
2019-05-19T19:03:17.162Z,50.45
2019-05-19T19:05:47.431Z,48.30
2019-05-19T19:08:17.629Z,53.65
2019-05-19T19:10:48.035Z,52.40
2019-05-19T19:13:18.277Z,56.90
2019-05-19T19:16:27.684Z,49.88
2019-05-19T19:18:57.880Z,50.20
2019-05-19T19:21:28.380Z,53.05
2019-05-19T19:23:58.640Z,56.40
2019-05-19T19:26:28.870Z,52.17
2019-05-19T19:28:59.093Z,55.33
2019-05-19T19:31:29.376Z,53.90
2019-05-19T19:33:59.580Z,52.62
2019-05-19T19:36:29.799Z,53.52
2019-05-19T19:39:00.156Z,50.15
2019-05-19T19:41:30.487Z,49.33
2019-05-19T19:44:00.706Z,46.90
2019-05-19T19:46:30.916Z,48.10
2019-05-19T19:49:01.123Z,51.55
2019-05-19T19:51:31.342Z,49.55
2019-05-19T19:54:01.542Z,53.02
2019-05-19T19:56:31.827Z,54.83
2019-05-19T19:59:02.064Z,62.15
2019-05-19T20:01:32.271Z,55.40
2019-05-19T20:04:02.558Z,55.25
2019-05-19T20:06:32.831Z,56.75
2019-05-19T20:09:04.962Z,54.20
2019-05-19T20:11:35.381Z,58.68
2019-05-19T20:14:05.713Z,56.85
2019-05-19T20:16:36.045Z,61.37
2019-05-19T20:19:06.247Z,62.17
2019-05-19T20:21:36.561Z,64.03
2019-05-19T20:24:06.806Z,64.10
2019-05-19T20:26:37.042Z,65.25
2019-05-19T20:29:07.243Z,66.75
2019-05-19T20:31:37.687Z,68.05
2019-05-19T20:34:07.884Z,76.05
2019-05-19T20:36:38.237Z,75.80
2019-05-19T20:39:08.692Z,70.37
2019-05-19T20:41:38.907Z,65.13
2019-05-19T20:44:11.827Z,59.42
2019-05-19T20:46:42.313Z,63.92
2019-05-19T20:49:12.502Z,57.97
2019-05-19T20:51:42.723Z,63.30
2019-05-19T20:54:12.919Z,64.30
2019-05-19T20:56:43.427Z,62.45
2019-05-19T20:59:13.713Z,68.50
2019-05-19T21:01:45.064Z,60.78
2019-05-19T21:04:15.612Z,59.58
2019-05-19T21:09:16.296Z,60.92
2019-05-19T21:11:46.506Z,69.20
2019-05-19T21:14:16.710Z,65.67
2019-05-19T21:16:46.999Z,68.25
2019-05-19T21:19:17.642Z,65.37
2019-05-19T21:21:47.937Z,69.85
2019-05-19T21:24:18.137Z,72.08
2019-05-19T21:26:48.444Z,68.37
2019-05-19T21:29:18.650Z,69.15
2019-05-19T21:31:48.905Z,69.55
2019-05-19T21:34:19.230Z,68.30
2019-05-19T21:36:49.579Z,68.28
2019-05-19T21:39:19.780Z,66.42
2019-05-19T21:41:50.031Z,67.17
2019-05-19T21:44:20.224Z,68.07
2019-05-19T21:46:55.672Z,70.97
2019-05-19T21:49:25.897Z,74.40
2019-05-19T21:51:58.619Z,68.05
2019-05-19T21:54:29.268Z,72.27
2019-05-19T21:56:59.644Z,61.63
2019-05-19T21:59:29.838Z,62.05
2019-05-19T22:02:00.124Z,61.42
2019-05-19T22:04:30.393Z,57.60
2019-05-19T22:07:02.292Z,52.93
2019-05-19T22:09:32.480Z,57.93
2019-05-19T22:12:02.701Z,55.38
2019-05-19T22:14:32.888Z,52.78
2019-05-19T22:17:03.107Z,50.25
2019-05-19T22:19:33.382Z,56.70
2019-05-19T22:22:03.661Z,55.23
2019-05-19T22:24:33.853Z,49.77
2019-05-19T22:27:04.207Z,46.90
2019-05-19T22:29:34.415Z,50.58
2019-05-19T22:32:04.632Z,44.13
2019-05-19T22:34:34.845Z,49.45
2019-05-19T22:37:05.102Z,45.08
2019-05-19T22:39:35.303Z,48.25
2019-05-19T22:42:05.528Z,50.52
2019-05-19T22:44:35.740Z,49.95
2019-05-19T22:47:06.039Z,53.20
2019-05-19T22:49:36.218Z,43.65
2019-05-19T22:52:06.444Z,40.03
2019-05-19T22:54:36.640Z,38.58
2019-05-19T22:57:06.854Z,40.63
2019-05-19T22:59:37.042Z,39.63
2019-05-19T23:02:09.279Z,36.93
2019-05-19T23:04:40.063Z,36.83
2019-05-19T23:07:10.266Z,34.70
2019-05-19T23:09:40.463Z,36.42
2019-05-19T23:12:10.782Z,36.60
2019-05-19T23:14:41.040Z,36.60
2019-05-19T23:17:11.394Z,33.73
2019-05-19T23:19:41.603Z,39.78
2019-05-19T23:22:11.824Z,36.55
2019-05-19T23:24:42.032Z,35.90
2019-05-19T23:27:12.241Z,40.70
2019-05-19T23:29:42.431Z,37.35
2019-05-19T23:32:12.642Z,38.85
2019-05-19T23:34:42.846Z,36.85
2019-05-19T23:37:13.061Z,36.95
2019-05-19T23:39:43.523Z,40.53
2019-05-19T23:42:13.834Z,32.67
2019-05-19T23:44:44.092Z,36.05
2019-05-19T23:47:14.322Z,32.75
2019-05-19T23:49:44.544Z,36.20
2019-05-19T23:52:14.779Z,34.73
2019-05-19T23:54:45.035Z,35.20
2019-05-19T23:57:15.258Z,34.60
2019-05-19T23:59:45.451Z,37.42
